CZFA

Faro Airport

Faro, Yukon Territory, Canada
METAR CZFA 181400Z 11003KT 030V130 30SM BCFG FEW063 SCT090 BKN130 OVC190 02/02 A3023 RMK SC2AC2AC1AS3 FG OVR LK AND RVR SLP268
Observed Flight Rules
Aug-18 @ 14:00 UTC (51 minutes ago) Visual Flight Rules
Wind Visibility Clouds Conditions
110° at 3 knots 30 miles
  • Few at 6,300' AGL
  • Scattered at 9,000' AGL
  • Broken at 13,000' AGL
  • Overcast at 19,000' AGL
  • Patches of
  • Fog
Temperatures Readings
Current 2°C / 36°F
Dewpoint 2°C / 36°F
Humidity 100%
Altimeter 30.23" Hg
Pressure 1026.8 hPa
Elevation 717
METAR CZFA 181400Z 11003KT 030V130 30SM BCFG FEW063 SCT090 BKN130 OVC190 02/02 A3023 RMK SC2AC2AC1AS3 FG OVR LK AND RVR SLP268
Observed Flight Rules
Aug-18 @ 14:00 UTC
(51 minutes ago)
VFR
Wind Visibility
110° at 3 knots 30 miles
Clouds
  • Few at 6,300' AGL
  • Scattered at 9,000' AGL
  • Broken at 13,000' AGL
  • Overcast at 19,000' AGL
Conditions
  • Patches of
  • Fog
Temperature Dewpoint
2°C / 36°F 2°C / 36°F
Humidity Altimeter Pressure
100% 30.23" Hg 1026.8 hPa